sensor_id;sensor_type;location;lat;lon;timestamp;P1;durP1;ratioP1;P2;durP2;ratioP2
8293;SDS011;4185;41.506;24.938;2023-06-04T00:01:09;5.87;;;5.27;;
8293;SDS011;4185;41.506;24.938;2023-06-04T00:03:35;7.03;;;6.10;;
8293;SDS011;4185;41.506;24.938;2023-06-04T00:06:04;8.00;;;6.50;;
8293;SDS011;4185;41.506;24.938;2023-06-04T00:08:30;7.27;;;6.00;;
8293;SDS011;4185;41.506;24.938;2023-06-04T00:10:57;7.47;;;6.47;;
8293;SDS011;4185;41.506;24.938;2023-06-04T00:13:24;8.20;;;6.50;;
8293;SDS011;4185;41.506;24.938;2023-06-04T00:15:50;8.60;;;6.37;;
8293;SDS011;4185;41.506;24.938;2023-06-04T00:18:17;7.47;;;6.00;;
8293;SDS011;4185;41.506;24.938;2023-06-04T00:20:44;8.93;;;6.50;;
8293;SDS011;4185;41.506;24.938;2023-06-04T00:23:12;6.87;;;6.17;;
8293;SDS011;4185;41.506;24.938;2023-06-04T00:25:39;7.00;;;6.20;;
8293;SDS011;4185;41.506;24.938;2023-06-04T00:28:05;7.03;;;5.70;;
8293;SDS011;4185;41.506;24.938;2023-06-04T00:30:32;7.97;;;6.40;;
8293;SDS011;4185;41.506;24.938;2023-06-04T00:32:59;7.23;;;6.20;;
8293;SDS011;4185;41.506;24.938;2023-06-04T00:35:27;7.53;;;6.10;;
8293;SDS011;4185;41.506;24.938;2023-06-04T00:37:53;6.60;;;5.53;;
8293;SDS011;4185;41.506;24.938;2023-06-04T00:40:21;7.73;;;6.00;;
8293;SDS011;4185;41.506;24.938;2023-06-04T00:42:48;7.40;;;6.37;;
8293;SDS011;4185;41.506;24.938;2023-06-04T00:45:15;6.67;;;5.93;;
8293;SDS011;4185;41.506;24.938;2023-06-04T00:47:45;6.40;;;5.80;;
8293;SDS011;4185;41.506;24.938;2023-06-04T00:50:12;6.73;;;6.03;;
8293;SDS011;4185;41.506;24.938;2023-06-04T00:52:39;7.17;;;5.97;;
8293;SDS011;4185;41.506;24.938;2023-06-04T00:55:07;8.33;;;6.47;;
8293;SDS011;4185;41.506;24.938;2023-06-04T00:57:36;7.93;;;6.87;;
8293;SDS011;4185;41.506;24.938;2023-06-04T01:00:04;7.37;;;6.60;;
8293;SDS011;4185;41.506;24.938;2023-06-04T01:02:32;8.07;;;6.50;;
8293;SDS011;4185;41.506;24.938;2023-06-04T01:05:03;7.33;;;6.20;;
8293;SDS011;4185;41.506;24.938;2023-06-04T01:07:37;6.63;;;5.90;;
8293;SDS011;4185;41.506;24.938;2023-06-04T01:10:10;7.87;;;6.13;;
8293;SDS011;4185;41.506;24.938;2023-06-04T01:12:40;7.30;;;6.33;;
8293;SDS011;4185;41.506;24.938;2023-06-04T01:15:07;6.50;;;5.90;;
8293;SDS011;4185;41.506;24.938;2023-06-04T01:17:36;6.93;;;6.23;;
8293;SDS011;4185;41.506;24.938;2023-06-04T01:20:13;6.30;;;5.43;;
8293;SDS011;4185;41.506;24.938;2023-06-04T01:22:48;6.13;;;5.30;;
8293;SDS011;4185;41.506;24.938;2023-06-04T01:25:43;6.47;;;5.80;;
8293;SDS011;4185;41.506;24.938;2023-06-04T01:28:16;6.70;;;5.33;;
8293;SDS011;4185;41.506;24.938;2023-06-04T01:30:46;6.50;;;5.30;;
8293;SDS011;4185;41.506;24.938;2023-06-04T01:33:14;7.23;;;5.47;;
8293;SDS011;4185;41.506;24.938;2023-06-04T01:35:42;6.27;;;5.50;;
8293;SDS011;4185;41.506;24.938;2023-06-04T01:38:10;6.57;;;5.87;;
8293;SDS011;4185;41.506;24.938;2023-06-04T01:40:37;7.43;;;6.10;;
8293;SDS011;4185;41.506;24.938;2023-06-04T01:43:04;6.10;;;5.50;;
8293;SDS011;4185;41.506;24.938;2023-06-04T01:45:32;8.93;;;6.40;;
8293;SDS011;4185;41.506;24.938;2023-06-04T01:48:00;7.80;;;5.93;;
8293;SDS011;4185;41.506;24.938;2023-06-04T01:50:27;6.27;;;5.67;;
8293;SDS011;4185;41.506;24.938;2023-06-04T01:52:55;6.97;;;6.27;;
8293;SDS011;4185;41.506;24.938;2023-06-04T01:55:22;6.60;;;5.90;;
8293;SDS011;4185;41.506;24.938;2023-06-04T01:57:50;6.40;;;5.80;;
8293;SDS011;4185;41.506;24.938;2023-06-04T02:00:17;6.93;;;5.83;;
8293;SDS011;4185;41.506;24.938;2023-06-04T02:02:46;6.67;;;5.60;;
8293;SDS011;4185;41.506;24.938;2023-06-04T02:05:14;7.27;;;5.90;;
8293;SDS011;4185;41.506;24.938;2023-06-04T02:07:42;10.53;;;6.17;;
8293;SDS011;4185;41.506;24.938;2023-06-04T02:10:10;7.67;;;6.43;;
8293;SDS011;4185;41.506;24.938;2023-06-04T02:12:39;7.50;;;6.43;;
8293;SDS011;4185;41.506;24.938;2023-06-04T02:15:09;7.77;;;6.60;;
8293;SDS011;4185;41.506;24.938;2023-06-04T02:17:36;8.43;;;6.73;;
8293;SDS011;4185;41.506;24.938;2023-06-04T02:20:07;9.57;;;6.90;;
8293;SDS011;4185;41.506;24.938;2023-06-04T02:22:35;10.37;;;6.93;;
8293;SDS011;4185;41.506;24.938;2023-06-04T02:25:02;9.70;;;7.17;;
8293;SDS011;4185;41.506;24.938;2023-06-04T02:27:29;7.30;;;6.50;;
8293;SDS011;4185;41.506;24.938;2023-06-04T02:29:56;7.87;;;6.47;;
8293;SDS011;4185;41.506;24.938;2023-06-04T02:32:23;9.10;;;6.87;;
8293;SDS011;4185;41.506;24.938;2023-06-04T02:34:49;9.00;;;7.10;;
8293;SDS011;4185;41.506;24.938;2023-06-04T02:37:17;8.93;;;6.93;;
8293;SDS011;4185;41.506;24.938;2023-06-04T02:39:44;9.57;;;7.43;;
8293;SDS011;4185;41.506;24.938;2023-06-04T02:42:11;11.07;;;7.60;;
8293;SDS011;4185;41.506;24.938;2023-06-04T02:44:38;11.07;;;7.63;;
8293;SDS011;4185;41.506;24.938;2023-06-04T02:47:05;10.53;;;8.03;;
8293;SDS011;4185;41.506;24.938;2023-06-04T02:49:32;11.67;;;8.40;;
8293;SDS011;4185;41.506;24.938;2023-06-04T02:51:59;13.60;;;9.20;;
8293;SDS011;4185;41.506;24.938;2023-06-04T02:54:27;11.87;;;8.70;;
8293;SDS011;4185;41.506;24.938;2023-06-04T02:56:53;12.63;;;7.83;;
8293;SDS011;4185;41.506;24.938;2023-06-04T02:59:20;10.53;;;8.27;;
8293;SDS011;4185;41.506;24.938;2023-06-04T03:01:47;12.27;;;8.27;;
8293;SDS011;4185;41.506;24.938;2023-06-04T03:04:14;13.30;;;8.23;;
8293;SDS011;4185;41.506;24.938;2023-06-04T03:06:41;11.30;;;7.33;;
8293;SDS011;4185;41.506;24.938;2023-06-04T03:09:10;10.10;;;7.90;;
8293;SDS011;4185;41.506;24.938;2023-06-04T03:11:38;9.77;;;7.70;;
8293;SDS011;4185;41.506;24.938;2023-06-04T03:14:05;9.63;;;8.10;;
8293;SDS011;4185;41.506;24.938;2023-06-04T03:16:32;9.13;;;7.80;;
8293;SDS011;4185;41.506;24.938;2023-06-04T03:18:59;10.70;;;8.23;;
8293;SDS011;4185;41.506;24.938;2023-06-04T03:21:26;10.07;;;7.80;;
8293;SDS011;4185;41.506;24.938;2023-06-04T03:23:54;10.67;;;7.57;;
8293;SDS011;4185;41.506;24.938;2023-06-04T03:26:20;10.60;;;7.80;;
8293;SDS011;4185;41.506;24.938;2023-06-04T03:28:49;12.33;;;8.70;;
8293;SDS011;4185;41.506;24.938;2023-06-04T03:31:15;12.77;;;9.00;;
8293;SDS011;4185;41.506;24.938;2023-06-04T03:33:42;10.93;;;8.30;;
8293;SDS011;4185;41.506;24.938;2023-06-04T03:36:09;11.70;;;8.83;;
8293;SDS011;4185;41.506;24.938;2023-06-04T03:38:35;11.97;;;8.83;;
8293;SDS011;4185;41.506;24.938;2023-06-04T03:41:02;12.27;;;8.67;;
8293;SDS011;4185;41.506;24.938;2023-06-04T03:43:29;13.50;;;8.43;;
8293;SDS011;4185;41.506;24.938;2023-06-04T03:45:57;14.80;;;8.33;;
8293;SDS011;4185;41.506;24.938;2023-06-04T03:48:24;11.43;;;8.77;;
8293;SDS011;4185;41.506;24.938;2023-06-04T03:50:50;10.07;;;7.30;;
8293;SDS011;4185;41.506;24.938;2023-06-04T03:53:17;10.47;;;8.13;;
8293;SDS011;4185;41.506;24.938;2023-06-04T03:55:44;13.03;;;9.13;;
8293;SDS011;4185;41.506;24.938;2023-06-04T03:58:11;12.73;;;8.73;;
8293;SDS011;4185;41.506;24.938;2023-06-04T04:00:39;14.57;;;8.23;;
8293;SDS011;4185;41.506;24.938;2023-06-04T04:03:07;12.40;;;8.50;;
8293;SDS011;4185;41.506;24.938;2023-06-04T04:05:35;12.60;;;8.77;;
8293;SDS011;4185;41.506;24.938;2023-06-04T04:08:02;12.67;;;8.50;;
8293;SDS011;4185;41.506;24.938;2023-06-04T04:10:29;11.07;;;8.50;;
8293;SDS011;4185;41.506;24.938;2023-06-04T04:12:56;11.93;;;8.77;;
8293;SDS011;4185;41.506;24.938;2023-06-04T04:15:23;12.23;;;8.87;;
8293;SDS011;4185;41.506;24.938;2023-06-04T04:17:50;10.27;;;8.23;;
8293;SDS011;4185;41.506;24.938;2023-06-04T04:20:19;11.33;;;8.20;;
8293;SDS011;4185;41.506;24.938;2023-06-04T04:22:45;10.70;;;8.63;;
8293;SDS011;4185;41.506;24.938;2023-06-04T04:25:13;11.43;;;8.63;;
8293;SDS011;4185;41.506;24.938;2023-06-04T04:27:40;12.27;;;9.00;;
8293;SDS011;4185;41.506;24.938;2023-06-04T04:30:07;11.80;;;8.13;;
8293;SDS011;4185;41.506;24.938;2023-06-04T04:32:35;8.63;;;7.67;;
8293;SDS011;4185;41.506;24.938;2023-06-04T04:35:04;9.67;;;8.10;;
8293;SDS011;4185;41.506;24.938;2023-06-04T04:37:34;9.77;;;7.87;;
8293;SDS011;4185;41.506;24.938;2023-06-04T04:40:05;10.77;;;7.83;;
8293;SDS011;4185;41.506;24.938;2023-06-04T04:42:35;9.37;;;7.80;;
8293;SDS011;4185;41.506;24.938;2023-06-04T04:45:02;9.77;;;8.00;;
8293;SDS011;4185;41.506;24.938;2023-06-04T04:47:28;12.30;;;7.73;;
8293;SDS011;4185;41.506;24.938;2023-06-04T04:49:55;9.50;;;7.70;;
8293;SDS011;4185;41.506;24.938;2023-06-04T04:52:22;10.57;;;7.77;;
8293;SDS011;4185;41.506;24.938;2023-06-04T04:54:50;12.40;;;8.60;;
8293;SDS011;4185;41.506;24.938;2023-06-04T04:57:20;11.67;;;9.03;;
8293;SDS011;4185;41.506;24.938;2023-06-04T04:59:47;11.40;;;9.07;;
8293;SDS011;4185;41.506;24.938;2023-06-04T05:02:14;11.70;;;8.93;;
8293;SDS011;4185;41.506;24.938;2023-06-04T05:04:41;11.07;;;8.70;;
8293;SDS011;4185;41.506;24.938;2023-06-04T05:07:08;10.07;;;7.87;;
8293;SDS011;4185;41.506;24.938;2023-06-04T05:09:35;9.77;;;7.83;;
8293;SDS011;4185;41.506;24.938;2023-06-04T05:12:03;9.23;;;8.17;;
8293;SDS011;4185;41.506;24.938;2023-06-04T05:14:30;11.43;;;8.63;;
8293;SDS011;4185;41.506;24.938;2023-06-04T05:16:57;9.80;;;8.63;;
8293;SDS011;4185;41.506;24.938;2023-06-04T05:19:23;13.20;;;8.20;;
8293;SDS011;4185;41.506;24.938;2023-06-04T05:21:50;8.30;;;7.23;;
8293;SDS011;4185;41.506;24.938;2023-06-04T05:24:17;9.07;;;8.07;;
8293;SDS011;4185;41.506;24.938;2023-06-04T05:26:44;9.87;;;8.27;;
8293;SDS011;4185;41.506;24.938;2023-06-04T05:29:14;9.73;;;7.77;;
8293;SDS011;4185;41.506;24.938;2023-06-04T05:31:41;9.63;;;7.57;;
8293;SDS011;4185;41.506;24.938;2023-06-04T05:34:09;8.93;;;7.97;;
8293;SDS011;4185;41.506;24.938;2023-06-04T05:36:36;7.90;;;7.07;;
8293;SDS011;4185;41.506;24.938;2023-06-04T05:39:03;8.00;;;7.20;;
8293;SDS011;4185;41.506;24.938;2023-06-04T05:41:29;7.90;;;6.97;;
8293;SDS011;4185;41.506;24.938;2023-06-04T05:43:56;8.57;;;6.67;;
8293;SDS011;4185;41.506;24.938;2023-06-04T05:46:24;8.00;;;6.70;;
8293;SDS011;4185;41.506;24.938;2023-06-04T05:48:51;8.00;;;7.07;;
8293;SDS011;4185;41.506;24.938;2023-06-04T05:51:18;8.33;;;7.37;;
8293;SDS011;4185;41.506;24.938;2023-06-04T05:53:45;8.47;;;7.50;;
8293;SDS011;4185;41.506;24.938;2023-06-04T05:56:12;8.67;;;7.77;;
8293;SDS011;4185;41.506;24.938;2023-06-04T05:58:39;8.70;;;7.30;;
8293;SDS011;4185;41.506;24.938;2023-06-04T06:01:05;8.03;;;7.23;;
8293;SDS011;4185;41.506;24.938;2023-06-04T06:03:34;8.30;;;7.40;;
8293;SDS011;4185;41.506;24.938;2023-06-04T06:06:01;8.47;;;6.67;;
8293;SDS011;4185;41.506;24.938;2023-06-04T06:08:28;8.57;;;7.33;;
8293;SDS011;4185;41.506;24.938;2023-06-04T06:10:55;9.83;;;7.90;;
8293;SDS011;4185;41.506;24.938;2023-06-04T06:13:21;8.23;;;7.33;;
8293;SDS011;4185;41.506;24.938;2023-06-04T06:15:48;11.50;;;8.47;;
8293;SDS011;4185;41.506;24.938;2023-06-04T06:18:15;7.77;;;6.87;;
8293;SDS011;4185;41.506;24.938;2023-06-04T06:20:43;10.17;;;7.00;;
8293;SDS011;4185;41.506;24.938;2023-06-04T06:23:10;8.70;;;7.20;;
8293;SDS011;4185;41.506;24.938;2023-06-04T06:25:37;10.63;;;6.93;;
8293;SDS011;4185;41.506;24.938;2023-06-04T06:28:05;7.97;;;7.17;;
8293;SDS011;4185;41.506;24.938;2023-06-04T06:30:32;7.93;;;6.97;;
8293;SDS011;4185;41.506;24.938;2023-06-04T06:32:59;9.63;;;6.93;;
8293;SDS011;4185;41.506;24.938;2023-06-04T06:35:25;8.97;;;7.00;;
8293;SDS011;4185;41.506;24.938;2023-06-04T06:37:53;7.93;;;7.10;;
8293;SDS011;4185;41.506;24.938;2023-06-04T06:40:20;8.43;;;7.50;;
8293;SDS011;4185;41.506;24.938;2023-06-04T06:42:48;7.33;;;6.33;;
8293;SDS011;4185;41.506;24.938;2023-06-04T06:45:15;10.53;;;6.83;;
8293;SDS011;4185;41.506;24.938;2023-06-04T06:47:42;8.27;;;6.13;;
8293;SDS011;4185;41.506;24.938;2023-06-04T06:50:09;11.60;;;6.73;;
8293;SDS011;4185;41.506;24.938;2023-06-04T06:52:36;7.20;;;5.50;;
8293;SDS011;4185;41.506;24.938;2023-06-04T06:55:05;7.83;;;6.13;;
8293;SDS011;4185;41.506;24.938;2023-06-04T06:57:32;6.70;;;6.00;;
8293;SDS011;4185;41.506;24.938;2023-06-04T06:59:59;5.47;;;4.33;;
8293;SDS011;4185;41.506;24.938;2023-06-04T07:02:26;7.57;;;3.37;;
8293;SDS011;4185;41.506;24.938;2023-06-04T07:04:53;6.10;;;3.30;;
8293;SDS011;4185;41.506;24.938;2023-06-04T07:07:20;4.83;;;3.83;;
8293;SDS011;4185;41.506;24.938;2023-06-04T07:09:47;4.10;;;3.40;;
8293;SDS011;4185;41.506;24.938;2023-06-04T07:12:15;4.13;;;3.47;;
8293;SDS011;4185;41.506;24.938;2023-06-04T07:14:42;4.13;;;3.73;;
8293;SDS011;4185;41.506;24.938;2023-06-04T07:17:10;4.43;;;3.43;;
8293;SDS011;4185;41.506;24.938;2023-06-04T07:19:36;5.47;;;3.30;;
8293;SDS011;4185;41.506;24.938;2023-06-04T07:22:03;4.10;;;3.57;;
8293;SDS011;4185;41.506;24.938;2023-06-04T07:24:30;3.43;;;3.10;;
8293;SDS011;4185;41.506;24.938;2023-06-04T07:26:57;6.57;;;3.30;;
8293;SDS011;4185;41.506;24.938;2023-06-04T07:29:25;3.57;;;2.90;;
8293;SDS011;4185;41.506;24.938;2023-06-04T07:31:52;5.60;;;3.53;;
8293;SDS011;4185;41.506;24.938;2023-06-04T07:34:18;3.23;;;2.93;;
8293;SDS011;4185;41.506;24.938;2023-06-04T07:36:45;5.40;;;3.13;;
8293;SDS011;4185;41.506;24.938;2023-06-04T07:39:12;4.20;;;3.20;;
8293;SDS011;4185;41.506;24.938;2023-06-04T07:41:39;4.37;;;3.40;;
8293;SDS011;4185;41.506;24.938;2023-06-04T07:44:05;3.30;;;3.00;;
8293;SDS011;4185;41.506;24.938;2023-06-04T07:46:33;3.73;;;3.40;;
8293;SDS011;4185;41.506;24.938;2023-06-04T07:49:00;3.80;;;3.40;;
8293;SDS011;4185;41.506;24.938;2023-06-04T07:51:27;8.00;;;3.53;;
8293;SDS011;4185;41.506;24.938;2023-06-04T07:53:54;5.00;;;3.10;;
8293;SDS011;4185;41.506;24.938;2023-06-04T07:56:20;3.83;;;3.40;;
8293;SDS011;4185;41.506;24.938;2023-06-04T07:58:47;3.97;;;2.70;;
8293;SDS011;4185;41.506;24.938;2023-06-04T08:01:14;4.73;;;3.30;;
8293;SDS011;4185;41.506;24.938;2023-06-04T08:03:42;4.90;;;3.50;;
8293;SDS011;4185;41.506;24.938;2023-06-04T08:06:09;5.83;;;3.50;;
8293;SDS011;4185;41.506;24.938;2023-06-04T08:08:36;7.83;;;3.60;;
8293;SDS011;4185;41.506;24.938;2023-06-04T08:11:03;5.97;;;3.50;;
8293;SDS011;4185;41.506;24.938;2023-06-04T08:13:29;6.03;;;3.60;;
8293;SDS011;4185;41.506;24.938;2023-06-04T08:15:56;5.13;;;3.30;;
8293;SDS011;4185;41.506;24.938;2023-06-04T08:18:23;4.23;;;3.30;;
8293;SDS011;4185;41.506;24.938;2023-06-04T08:20:51;6.13;;;2.80;;
8293;SDS011;4185;41.506;24.938;2023-06-04T08:23:18;3.57;;;2.90;;
8293;SDS011;4185;41.506;24.938;2023-06-04T08:25:45;4.73;;;2.93;;
8293;SDS011;4185;41.506;24.938;2023-06-04T08:28:12;4.27;;;3.07;;
8293;SDS011;4185;41.506;24.938;2023-06-04T08:30:40;5.00;;;3.20;;
8293;SDS011;4185;41.506;24.938;2023-06-04T08:33:08;5.03;;;3.17;;
8293;SDS011;4185;41.506;24.938;2023-06-04T08:35:35;4.13;;;3.10;;
8293;SDS011;4185;41.506;24.938;2023-06-04T08:38:03;5.90;;;3.27;;
8293;SDS011;4185;41.506;24.938;2023-06-04T08:40:30;4.87;;;3.20;;
8293;SDS011;4185;41.506;24.938;2023-06-04T08:42:57;3.77;;;3.03;;
8293;SDS011;4185;41.506;24.938;2023-06-04T08:45:26;4.30;;;3.30;;
8293;SDS011;4185;41.506;24.938;2023-06-04T08:47:53;3.37;;;3.00;;
8293;SDS011;4185;41.506;24.938;2023-06-04T08:50:21;3.20;;;2.80;;
8293;SDS011;4185;41.506;24.938;2023-06-04T08:52:51;4.17;;;3.40;;
8293;SDS011;4185;41.506;24.938;2023-06-04T08:55:21;6.33;;;3.57;;
8293;SDS011;4185;41.506;24.938;2023-06-04T08:57:49;4.10;;;3.03;;
8293;SDS011;4185;41.506;24.938;2023-06-04T09:00:17;3.47;;;3.13;;
8293;SDS011;4185;41.506;24.938;2023-06-04T09:02:44;3.90;;;3.30;;
8293;SDS011;4185;41.506;24.938;2023-06-04T09:05:14;6.00;;;3.40;;
8293;SDS011;4185;41.506;24.938;2023-06-04T09:07:45;4.00;;;3.13;;
8293;SDS011;4185;41.506;24.938;2023-06-04T09:10:15;4.03;;;3.10;;
8293;SDS011;4185;41.506;24.938;2023-06-04T09:12:46;3.97;;;3.20;;
8293;SDS011;4185;41.506;24.938;2023-06-04T09:15:15;7.33;;;3.90;;
8293;SDS011;4185;41.506;24.938;2023-06-04T09:17:42;4.03;;;3.00;;
8293;SDS011;4185;41.506;24.938;2023-06-04T09:20:17;4.57;;;3.40;;
8293;SDS011;4185;41.506;24.938;2023-06-04T09:22:44;5.53;;;3.47;;
8293;SDS011;4185;41.506;24.938;2023-06-04T09:25:18;6.07;;;3.20;;
8293;SDS011;4185;41.506;24.938;2023-06-04T09:27:48;8.00;;;3.50;;
8293;SDS011;4185;41.506;24.938;2023-06-04T09:30:15;6.77;;;3.97;;
8293;SDS011;4185;41.506;24.938;2023-06-04T09:32:41;4.17;;;3.50;;
8293;SDS011;4185;41.506;24.938;2023-06-04T09:35:09;5.67;;;3.67;;
8293;SDS011;4185;41.506;24.938;2023-06-04T09:37:37;5.73;;;3.70;;
8293;SDS011;4185;41.506;24.938;2023-06-04T09:40:04;5.60;;;3.30;;
8293;SDS011;4185;41.506;24.938;2023-06-04T09:42:41;4.93;;;3.27;;
8293;SDS011;4185;41.506;24.938;2023-06-04T09:45:09;3.50;;;3.20;;
8293;SDS011;4185;41.506;24.938;2023-06-04T09:47:40;5.47;;;3.30;;
8293;SDS011;4185;41.506;24.938;2023-06-04T09:50:08;4.13;;;2.70;;
8293;SDS011;4185;41.506;24.938;2023-06-04T09:52:35;3.33;;;2.87;;
8293;SDS011;4185;41.506;24.938;2023-06-04T09:55:02;6.43;;;3.40;;
8293;SDS011;4185;41.506;24.938;2023-06-04T09:57:30;5.27;;;2.50;;
8293;SDS011;4185;41.506;24.938;2023-06-04T10:00:01;3.80;;;2.80;;
8293;SDS011;4185;41.506;24.938;2023-06-04T10:02:35;4.63;;;3.03;;
8293;SDS011;4185;41.506;24.938;2023-06-04T10:05:02;3.87;;;2.77;;
8293;SDS011;4185;41.506;24.938;2023-06-04T10:07:33;3.33;;;3.00;;
8293;SDS011;4185;41.506;24.938;2023-06-04T10:10:03;5.07;;;3.03;;
8293;SDS011;4185;41.506;24.938;2023-06-04T10:12:31;4.03;;;3.63;;
8293;SDS011;4185;41.506;24.938;2023-06-04T10:15:05;4.83;;;2.77;;
8293;SDS011;4185;41.506;24.938;2023-06-04T10:17:37;6.03;;;3.43;;
8293;SDS011;4185;41.506;24.938;2023-06-04T10:20:06;4.37;;;3.63;;
8293;SDS011;4185;41.506;24.938;2023-06-04T10:22:34;5.33;;;3.57;;
8293;SDS011;4185;41.506;24.938;2023-06-04T10:25:01;5.63;;;3.57;;
8293;SDS011;4185;41.506;24.938;2023-06-04T10:27:30;6.40;;;3.73;;
8293;SDS011;4185;41.506;24.938;2023-06-04T10:29:57;6.10;;;3.90;;
8293;SDS011;4185;41.506;24.938;2023-06-04T10:32:26;6.80;;;4.07;;
8293;SDS011;4185;41.506;24.938;2023-06-04T10:34:55;3.53;;;3.23;;
8293;SDS011;4185;41.506;24.938;2023-06-04T10:37:22;3.97;;;3.40;;
8293;SDS011;4185;41.506;24.938;2023-06-04T10:39:50;4.83;;;3.10;;
8293;SDS011;4185;41.506;24.938;2023-06-04T10:42:19;5.93;;;2.77;;
8293;SDS011;4185;41.506;24.938;2023-06-04T10:44:46;3.70;;;3.40;;
8293;SDS011;4185;41.506;24.938;2023-06-04T10:47:20;4.33;;;3.13;;
8293;SDS011;4185;41.506;24.938;2023-06-04T10:49:49;4.03;;;3.30;;
8293;SDS011;4185;41.506;24.938;2023-06-04T10:52:17;4.30;;;3.27;;
8293;SDS011;4185;41.506;24.938;2023-06-04T10:54:45;4.27;;;3.30;;
8293;SDS011;4185;41.506;24.938;2023-06-04T10:57:14;5.33;;;3.27;;
8293;SDS011;4185;41.506;24.938;2023-06-04T10:59:42;4.67;;;3.43;;
8293;SDS011;4185;41.506;24.938;2023-06-04T11:02:19;5.67;;;3.87;;
8293;SDS011;4185;41.506;24.938;2023-06-04T11:04:46;3.93;;;3.20;;
8293;SDS011;4185;41.506;24.938;2023-06-04T11:07:13;4.37;;;3.40;;
8293;SDS011;4185;41.506;24.938;2023-06-04T11:09:48;5.93;;;3.20;;
8293;SDS011;4185;41.506;24.938;2023-06-04T11:12:16;4.87;;;3.17;;
8293;SDS011;4185;41.506;24.938;2023-06-04T11:14:53;4.03;;;3.43;;
8293;SDS011;4185;41.506;24.938;2023-06-04T11:17:20;5.00;;;3.17;;
8293;SDS011;4185;41.506;24.938;2023-06-04T11:19:46;4.73;;;3.33;;
8293;SDS011;4185;41.506;24.938;2023-06-04T11:22:13;3.40;;;3.00;;
8293;SDS011;4185;41.506;24.938;2023-06-04T11:24:41;4.47;;;3.43;;
8293;SDS011;4185;41.506;24.938;2023-06-04T11:27:09;4.73;;;3.30;;
8293;SDS011;4185;41.506;24.938;2023-06-04T11:29:36;5.93;;;3.57;;
8293;SDS011;4185;41.506;24.938;2023-06-04T11:32:03;4.70;;;3.70;;
8293;SDS011;4185;41.506;24.938;2023-06-04T11:34:31;5.50;;;3.77;;
8293;SDS011;4185;41.506;24.938;2023-06-04T11:37:07;4.33;;;3.43;;
8293;SDS011;4185;41.506;24.938;2023-06-04T11:39:35;6.57;;;3.90;;
8293;SDS011;4185;41.506;24.938;2023-06-04T11:42:04;6.30;;;3.50;;
8293;SDS011;4185;41.506;24.938;2023-06-04T11:44:33;5.87;;;3.70;;
8293;SDS011;4185;41.506;24.938;2023-06-04T11:47:00;6.23;;;3.27;;
8293;SDS011;4185;41.506;24.938;2023-06-04T11:49:30;6.00;;;3.70;;
8293;SDS011;4185;41.506;24.938;2023-06-04T11:51:57;6.80;;;3.53;;
8293;SDS011;4185;41.506;24.938;2023-06-04T11:54:24;5.90;;;3.80;;
8293;SDS011;4185;41.506;24.938;2023-06-04T11:56:51;5.50;;;3.40;;
8293;SDS011;4185;41.506;24.938;2023-06-04T11:59:18;4.57;;;3.50;;
8293;SDS011;4185;41.506;24.938;2023-06-04T12:01:47;4.27;;;3.40;;
8293;SDS011;4185;41.506;24.938;2023-06-04T12:04:15;5.03;;;3.77;;
8293;SDS011;4185;41.506;24.938;2023-06-04T12:06:52;6.63;;;3.50;;
8293;SDS011;4185;41.506;24.938;2023-06-04T12:09:19;5.07;;;3.50;;
8293;SDS011;4185;41.506;24.938;2023-06-04T12:11:46;4.17;;;3.77;;
8293;SDS011;4185;41.506;24.938;2023-06-04T12:14:15;3.10;;;2.83;;
8293;SDS011;4185;41.506;24.938;2023-06-04T12:16:43;5.87;;;3.27;;
8293;SDS011;4185;41.506;24.938;2023-06-04T12:19:21;3.73;;;3.40;;
8293;SDS011;4185;41.506;24.938;2023-06-04T12:21:58;4.00;;;3.43;;
8293;SDS011;4185;41.506;24.938;2023-06-04T12:24:26;5.87;;;3.90;;
8293;SDS011;4185;41.506;24.938;2023-06-04T12:27:00;4.47;;;3.50;;
8293;SDS011;4185;41.506;24.938;2023-06-04T12:29:28;3.50;;;3.20;;
8293;SDS011;4185;41.506;24.938;2023-06-04T12:32:01;4.33;;;3.60;;
8293;SDS011;4185;41.506;24.938;2023-06-04T12:34:30;6.33;;;3.93;;
8293;SDS011;4185;41.506;24.938;2023-06-04T12:36:57;5.70;;;4.10;;
8293;SDS011;4185;41.506;24.938;2023-06-04T12:39:24;4.83;;;4.17;;
8293;SDS011;4185;41.506;24.938;2023-06-04T12:41:50;4.73;;;4.20;;
8293;SDS011;4185;41.506;24.938;2023-06-04T12:44:17;6.33;;;4.23;;
8293;SDS011;4185;41.506;24.938;2023-06-04T12:46:44;7.67;;;4.33;;
8293;SDS011;4185;41.506;24.938;2023-06-04T12:49:11;5.37;;;4.03;;
8293;SDS011;4185;41.506;24.938;2023-06-04T12:51:39;4.43;;;3.97;;
8293;SDS011;4185;41.506;24.938;2023-06-04T12:54:06;5.37;;;4.00;;
8293;SDS011;4185;41.506;24.938;2023-06-04T12:56:33;4.73;;;3.93;;
8293;SDS011;4185;41.506;24.938;2023-06-04T12:59:00;4.40;;;4.00;;
8293;SDS011;4185;41.506;24.938;2023-06-04T13:01:27;5.23;;;4.53;;
8293;SDS011;4185;41.506;24.938;2023-06-04T13:03:54;5.67;;;3.90;;
8293;SDS011;4185;41.506;24.938;2023-06-04T13:06:21;4.50;;;4.10;;
8293;SDS011;4185;41.506;24.938;2023-06-04T13:08:49;4.40;;;4.00;;
8293;SDS011;4185;41.506;24.938;2023-06-04T13:11:16;4.90;;;3.97;;
8293;SDS011;4185;41.506;24.938;2023-06-04T13:13:43;6.93;;;4.53;;
8293;SDS011;4185;41.506;24.938;2023-06-04T13:16:10;4.20;;;3.80;;
8293;SDS011;4185;41.506;24.938;2023-06-04T13:18:36;6.47;;;4.23;;
8293;SDS011;4185;41.506;24.938;2023-06-04T13:21:04;5.77;;;4.03;;
8293;SDS011;4185;41.506;24.938;2023-06-04T13:23:31;5.60;;;3.97;;
8293;SDS011;4185;41.506;24.938;2023-06-04T13:25:59;5.20;;;4.00;;
8293;SDS011;4185;41.506;24.938;2023-06-04T13:28:26;7.83;;;4.67;;
8293;SDS011;4185;41.506;24.938;2023-06-04T13:30:53;4.93;;;4.33;;
8293;SDS011;4185;41.506;24.938;2023-06-04T13:33:20;5.43;;;4.23;;
8293;SDS011;4185;41.506;24.938;2023-06-04T13:35:47;5.63;;;4.63;;
8293;SDS011;4185;41.506;24.938;2023-06-04T13:38:15;5.67;;;4.90;;
8293;SDS011;4185;41.506;24.938;2023-06-04T13:40:42;5.73;;;4.33;;
8293;SDS011;4185;41.506;24.938;2023-06-04T13:43:11;5.10;;;4.27;;
8293;SDS011;4185;41.506;24.938;2023-06-04T13:45:37;6.90;;;3.97;;
8293;SDS011;4185;41.506;24.938;2023-06-04T13:48:05;4.33;;;3.63;;
8293;SDS011;4185;41.506;24.938;2023-06-04T13:50:33;5.07;;;4.50;;
8293;SDS011;4185;41.506;24.938;2023-06-04T13:53:00;4.50;;;4.00;;
8293;SDS011;4185;41.506;24.938;2023-06-04T13:55:27;5.77;;;4.27;;
8293;SDS011;4185;41.506;24.938;2023-06-04T13:57:53;6.07;;;4.00;;
8293;SDS011;4185;41.506;24.938;2023-06-04T14:00:21;4.43;;;3.83;;
8293;SDS011;4185;41.506;24.938;2023-06-04T14:02:49;6.27;;;4.70;;
8293;SDS011;4185;41.506;24.938;2023-06-04T14:05:16;7.20;;;4.60;;
8293;SDS011;4185;41.506;24.938;2023-06-04T14:07:43;4.87;;;4.43;;
8293;SDS011;4185;41.506;24.938;2023-06-04T14:10:10;7.37;;;4.60;;
8293;SDS011;4185;41.506;24.938;2023-06-04T14:12:37;4.80;;;4.40;;
8293;SDS011;4185;41.506;24.938;2023-06-04T14:15:05;5.93;;;4.50;;
8293;SDS011;4185;41.506;24.938;2023-06-04T14:17:37;4.47;;;4.07;;
8293;SDS011;4185;41.506;24.938;2023-06-04T14:20:04;5.20;;;4.70;;
8293;SDS011;4185;41.506;24.938;2023-06-04T14:22:33;9.80;;;3.97;;
8293;SDS011;4185;41.506;24.938;2023-06-04T14:25:01;5.00;;;4.43;;
8293;SDS011;4185;41.506;24.938;2023-06-04T14:27:28;6.33;;;4.03;;
8293;SDS011;4185;41.506;24.938;2023-06-04T14:29:55;6.77;;;4.73;;
8293;SDS011;4185;41.506;24.938;2023-06-04T14:32:22;6.37;;;4.70;;
8293;SDS011;4185;41.506;24.938;2023-06-04T14:34:50;8.33;;;4.20;;
8293;SDS011;4185;41.506;24.938;2023-06-04T14:37:17;4.90;;;4.40;;
8293;SDS011;4185;41.506;24.938;2023-06-04T14:39:46;5.47;;;4.47;;
8293;SDS011;4185;41.506;24.938;2023-06-04T14:42:13;5.53;;;4.33;;
8293;SDS011;4185;41.506;24.938;2023-06-04T14:44:40;6.87;;;4.47;;
8293;SDS011;4185;41.506;24.938;2023-06-04T14:47:06;5.40;;;4.77;;
8293;SDS011;4185;41.506;24.938;2023-06-04T14:49:33;9.27;;;4.90;;
8293;SDS011;4185;41.506;24.938;2023-06-04T14:52:02;4.50;;;4.10;;
8293;SDS011;4185;41.506;24.938;2023-06-04T14:54:29;4.63;;;4.23;;
8293;SDS011;4185;41.506;24.938;2023-06-04T14:56:56;5.50;;;4.70;;
8293;SDS011;4185;41.506;24.938;2023-06-04T14:59:23;4.87;;;4.23;;
8293;SDS011;4185;41.506;24.938;2023-06-04T15:01:50;6.07;;;4.53;;
8293;SDS011;4185;41.506;24.938;2023-06-04T15:04:16;6.57;;;4.40;;